sensor_id;sensor_type;location;lat;lon;timestamp;temperature;humidity
65637;DHT22;52327;42.622;23.316;2023-05-07T00:02:07;10.99;70.11
65637;DHT22;52327;42.622;23.316;2023-05-07T00:04:33;11.04;70.25
65637;DHT22;52327;42.622;23.316;2023-05-07T00:07:02;10.86;70.80
65637;DHT22;52327;42.622;23.316;2023-05-07T00:09:28;10.73;71.35
65637;DHT22;52327;42.622;23.316;2023-05-07T00:11:54;10.65;71.87
65637;DHT22;52327;42.622;23.316;2023-05-07T00:14:19;10.58;72.05
65637;DHT22;52327;42.622;23.316;2023-05-07T00:16:46;10.45;72.43
65637;DHT22;52327;42.622;23.316;2023-05-07T00:19:11;10.51;72.68
65637;DHT22;52327;42.622;23.316;2023-05-07T00:21:40;10.55;72.40
65637;DHT22;52327;42.622;23.316;2023-05-07T00:24:12;10.76;71.77
65637;DHT22;52327;42.622;23.316;2023-05-07T00:26:46;10.76;71.84
65637;DHT22;52327;42.622;23.316;2023-05-07T00:29:12;10.65;72.07
65637;DHT22;52327;42.622;23.316;2023-05-07T00:31:48;10.55;72.62
65637;DHT22;52327;42.622;23.316;2023-05-07T00:34:16;10.42;72.76
65637;DHT22;52327;42.622;23.316;2023-05-07T00:36:45;10.34;72.98
65637;DHT22;52327;42.622;23.316;2023-05-07T00:39:13;10.30;72.93
65637;DHT22;52327;42.622;23.316;2023-05-07T00:41:38;10.35;72.33
65637;DHT22;52327;42.622;23.316;2023-05-07T00:44:04;10.34;72.59
65637;DHT22;52327;42.622;23.316;2023-05-07T00:46:30;10.31;72.90
65637;DHT22;52327;42.622;23.316;2023-05-07T00:49:03;10.34;72.99
65637;DHT22;52327;42.622;23.316;2023-05-07T00:51:30;10.38;73.17
65637;DHT22;52327;42.622;23.316;2023-05-07T00:54:03;10.42;72.79
65637;DHT22;52327;42.622;23.316;2023-05-07T00:56:28;10.38;72.79
65637;DHT22;52327;42.622;23.316;2023-05-07T00:58:54;10.44;72.68
65637;DHT22;52327;42.622;23.316;2023-05-07T01:01:20;10.42;72.79
65637;DHT22;52327;42.622;23.316;2023-05-07T01:03:46;10.40;72.80
65637;DHT22;52327;42.622;23.316;2023-05-07T01:06:12;10.37;72.87
65637;DHT22;52327;42.622;23.316;2023-05-07T01:08:41;10.28;73.52
65637;DHT22;52327;42.622;23.316;2023-05-07T01:11:08;10.35;72.59
65637;DHT22;52327;42.622;23.316;2023-05-07T01:13:37;10.38;72.76
65637;DHT22;52327;42.622;23.316;2023-05-07T01:16:04;10.32;72.83
65637;DHT22;52327;42.622;23.316;2023-05-07T01:18:29;10.14;73.75
65637;DHT22;52327;42.622;23.316;2023-05-07T01:20:58;9.93;74.65
65637;DHT22;52327;42.622;23.316;2023-05-07T01:23:25;9.81;75.29
65637;DHT22;52327;42.622;23.316;2023-05-07T01:25:54;9.74;75.61
65637;DHT22;52327;42.622;23.316;2023-05-07T01:28:19;9.81;75.51
65637;DHT22;52327;42.622;23.316;2023-05-07T01:30:53;9.79;75.33
65637;DHT22;52327;42.622;23.316;2023-05-07T01:33:21;9.79;75.68
65637;DHT22;52327;42.622;23.316;2023-05-07T01:35:50;9.91;74.95
65637;DHT22;52327;42.622;23.316;2023-05-07T01:38:18;9.90;74.84
65637;DHT22;52327;42.622;23.316;2023-05-07T01:40:49;9.83;75.36
65637;DHT22;52327;42.622;23.316;2023-05-07T01:43:18;9.84;75.27
65637;DHT22;52327;42.622;23.316;2023-05-07T01:45:44;9.74;75.82
65637;DHT22;52327;42.622;23.316;2023-05-07T01:48:11;9.70;76.02
65637;DHT22;52327;42.622;23.316;2023-05-07T01:50:38;9.63;76.30
65637;DHT22;52327;42.622;23.316;2023-05-07T01:53:04;9.63;76.40
65637;DHT22;52327;42.622;23.316;2023-05-07T01:55:35;9.64;76.34
65637;DHT22;52327;42.622;23.316;2023-05-07T01:58:04;9.66;76.55
65637;DHT22;52327;42.622;23.316;2023-05-07T02:00:31;9.76;76.41
65637;DHT22;52327;42.622;23.316;2023-05-07T02:02:57;9.80;76.00
65637;DHT22;52327;42.622;23.316;2023-05-07T02:05:28;9.87;75.35
65637;DHT22;52327;42.622;23.316;2023-05-07T02:07:56;9.90;75.50
65637;DHT22;52327;42.622;23.316;2023-05-07T02:10:24;9.77;75.90
65637;DHT22;52327;42.622;23.316;2023-05-07T02:12:52;9.73;75.87
65637;DHT22;52327;42.622;23.316;2023-05-07T02:15:17;9.76;75.50
65637;DHT22;52327;42.622;23.316;2023-05-07T02:18:04;9.64;75.78
65637;DHT22;52327;42.622;23.316;2023-05-07T02:20:29;9.50;76.32
65637;DHT22;52327;42.622;23.316;2023-05-07T02:22:55;9.43;76.74
65637;DHT22;52327;42.622;23.316;2023-05-07T02:25:20;9.56;76.18
65637;DHT22;52327;42.622;23.316;2023-05-07T02:27:46;9.40;76.56
65637;DHT22;52327;42.622;23.316;2023-05-07T02:30:12;9.52;76.13
65637;DHT22;52327;42.622;23.316;2023-05-07T02:32:37;9.73;74.92
65637;DHT22;52327;42.622;23.316;2023-05-07T02:35:03;9.53;75.90
65637;DHT22;52327;42.622;23.316;2023-05-07T02:37:28;9.44;76.19
65637;DHT22;52327;42.622;23.316;2023-05-07T02:39:54;9.43;76.35
65637;DHT22;52327;42.622;23.316;2023-05-07T02:42:20;9.46;76.29
65637;DHT22;52327;42.622;23.316;2023-05-07T02:44:45;9.50;75.60
65637;DHT22;52327;42.622;23.316;2023-05-07T02:47:11;9.35;76.00
65637;DHT22;52327;42.622;23.316;2023-05-07T02:49:41;9.42;76.08
65637;DHT22;52327;42.622;23.316;2023-05-07T02:52:09;9.56;75.30
65637;DHT22;52327;42.622;23.316;2023-05-07T02:54:35;9.54;76.16
65637;DHT22;52327;42.622;23.316;2023-05-07T02:57:01;9.44;77.16
65637;DHT22;52327;42.622;23.316;2023-05-07T02:59:30;9.30;77.65
65637;DHT22;52327;42.622;23.316;2023-05-07T03:01:55;9.18;77.99
65637;DHT22;52327;42.622;23.316;2023-05-07T03:04:21;9.07;78.26
65637;DHT22;52327;42.622;23.316;2023-05-07T03:06:46;8.97;78.23
65637;DHT22;52327;42.622;23.316;2023-05-07T03:09:18;8.92;78.72
65637;DHT22;52327;42.622;23.316;2023-05-07T03:11:43;8.99;78.47
65637;DHT22;52327;42.622;23.316;2023-05-07T03:14:09;9.08;77.85
65637;DHT22;52327;42.622;23.316;2023-05-07T03:16:35;9.08;78.12
65637;DHT22;52327;42.622;23.316;2023-05-07T03:19:01;9.14;77.65
65637;DHT22;52327;42.622;23.316;2023-05-07T03:21:29;8.92;77.85
65637;DHT22;52327;42.622;23.316;2023-05-07T03:23:58;8.74;78.55
65637;DHT22;52327;42.622;23.316;2023-05-07T03:26:23;8.70;79.42
65637;DHT22;52327;42.622;23.316;2023-05-07T03:28:50;8.72;79.71
65637;DHT22;52327;42.622;23.316;2023-05-07T03:31:16;8.87;79.70
65637;DHT22;52327;42.622;23.316;2023-05-07T03:33:57;9.07;78.81
65637;DHT22;52327;42.622;23.316;2023-05-07T03:36:23;9.08;78.61
65637;DHT22;52327;42.622;23.316;2023-05-07T03:38:50;9.20;77.74
65637;DHT22;52327;42.622;23.316;2023-05-07T03:41:15;9.19;77.66
65637;DHT22;52327;42.622;23.316;2023-05-07T03:43:41;9.15;77.62
65637;DHT22;52327;42.622;23.316;2023-05-07T03:46:07;9.01;77.70
65637;DHT22;52327;42.622;23.316;2023-05-07T03:48:32;8.99;78.72
65637;DHT22;52327;42.622;23.316;2023-05-07T03:50:58;9.16;78.21
65637;DHT22;52327;42.622;23.316;2023-05-07T03:53:24;9.18;78.19
65637;DHT22;52327;42.622;23.316;2023-05-07T03:55:50;9.30;78.02
65637;DHT22;52327;42.622;23.316;2023-05-07T03:58:21;9.50;77.48
65637;DHT22;52327;42.622;23.316;2023-05-07T04:00:50;9.63;77.19
65637;DHT22;52327;42.622;23.316;2023-05-07T04:03:17;9.74;76.97
65637;DHT22;52327;42.622;23.316;2023-05-07T04:05:43;9.84;76.71
65637;DHT22;52327;42.622;23.316;2023-05-07T04:08:09;9.93;76.77
65637;DHT22;52327;42.622;23.316;2023-05-07T04:10:37;10.10;76.27
65637;DHT22;52327;42.622;23.316;2023-05-07T04:13:05;10.12;76.19
65637;DHT22;52327;42.622;23.316;2023-05-07T04:15:37;10.24;76.04
65637;DHT22;52327;42.622;23.316;2023-05-07T04:18:03;10.32;76.12
65637;DHT22;52327;42.622;23.316;2023-05-07T04:20:49;10.37;76.14
65637;DHT22;52327;42.622;23.316;2023-05-07T04:23:24;10.40;76.37
65637;DHT22;52327;42.622;23.316;2023-05-07T04:25:50;10.37;76.42
65637;DHT22;52327;42.622;23.316;2023-05-07T04:28:16;10.32;76.63
65637;DHT22;52327;42.622;23.316;2023-05-07T04:30:41;10.41;76.37
65637;DHT22;52327;42.622;23.316;2023-05-07T04:33:07;10.55;76.20
65637;DHT22;52327;42.622;23.316;2023-05-07T04:35:32;10.46;76.09
65637;DHT22;52327;42.622;23.316;2023-05-07T04:37:58;10.61;76.05
65637;DHT22;52327;42.622;23.316;2023-05-07T04:40:23;10.75;75.74
65637;DHT22;52327;42.622;23.316;2023-05-07T04:42:49;10.89;75.36
65637;DHT22;52327;42.622;23.316;2023-05-07T04:45:14;10.88;75.12
65637;DHT22;52327;42.622;23.316;2023-05-07T04:47:40;10.89;74.60
65637;DHT22;52327;42.622;23.316;2023-05-07T04:50:06;10.95;74.75
65637;DHT22;52327;42.622;23.316;2023-05-07T04:52:32;11.03;74.21
65637;DHT22;52327;42.622;23.316;2023-05-07T04:55:01;11.19;74.04
65637;DHT22;52327;42.622;23.316;2023-05-07T04:57:27;11.31;74.24
65637;DHT22;52327;42.622;23.316;2023-05-07T04:59:53;11.38;74.22
65637;DHT22;52327;42.622;23.316;2023-05-07T05:02:19;11.48;73.72
65637;DHT22;52327;42.622;23.316;2023-05-07T05:04:44;11.48;73.79
65637;DHT22;52327;42.622;23.316;2023-05-07T05:07:10;11.65;73.62
65637;DHT22;52327;42.622;23.316;2023-05-07T05:09:35;11.75;73.07
65637;DHT22;52327;42.622;23.316;2023-05-07T05:12:01;11.82;73.13
65637;DHT22;52327;42.622;23.316;2023-05-07T05:14:27;11.88;72.98
65637;DHT22;52327;42.622;23.316;2023-05-07T05:16:53;12.01;72.70
65637;DHT22;52327;42.622;23.316;2023-05-07T05:19:18;12.06;72.29
65637;DHT22;52327;42.622;23.316;2023-05-07T05:21:45;12.15;72.00
65637;DHT22;52327;42.622;23.316;2023-05-07T05:24:10;12.25;71.76
65637;DHT22;52327;42.622;23.316;2023-05-07T05:26:35;12.02;71.69
65637;DHT22;52327;42.622;23.316;2023-05-07T05:29:01;12.04;72.35
65637;DHT22;52327;42.622;23.316;2023-05-07T05:31:26;12.14;72.47
65637;DHT22;52327;42.622;23.316;2023-05-07T05:33:51;12.28;70.98
65637;DHT22;52327;42.622;23.316;2023-05-07T05:36:17;12.39;71.21
65637;DHT22;52327;42.622;23.316;2023-05-07T05:38:43;12.46;71.15
65637;DHT22;52327;42.622;23.316;2023-05-07T05:41:09;12.55;70.41
65637;DHT22;52327;42.622;23.316;2023-05-07T05:43:35;12.56;70.44
65637;DHT22;52327;42.622;23.316;2023-05-07T05:46:00;12.68;70.44
65637;DHT22;52327;42.622;23.316;2023-05-07T05:48:26;12.70;70.36
65637;DHT22;52327;42.622;23.316;2023-05-07T05:50:51;12.80;70.32
65637;DHT22;52327;42.622;23.316;2023-05-07T05:53:16;12.90;70.47
65637;DHT22;52327;42.622;23.316;2023-05-07T05:55:42;12.98;69.93
65637;DHT22;52327;42.622;23.316;2023-05-07T05:58:08;13.06;69.87
65637;DHT22;52327;42.622;23.316;2023-05-07T06:00:34;13.19;69.93
65637;DHT22;52327;42.622;23.316;2023-05-07T06:02:59;13.06;69.61
65637;DHT22;52327;42.622;23.316;2023-05-07T06:05:25;13.11;70.65
65637;DHT22;52327;42.622;23.316;2023-05-07T06:07:50;13.34;69.79
65637;DHT22;52327;42.622;23.316;2023-05-07T06:10:16;13.49;69.58
65637;DHT22;52327;42.622;23.316;2023-05-07T06:12:41;13.49;68.95
65637;DHT22;52327;42.622;23.316;2023-05-07T06:15:07;13.52;69.38
65637;DHT22;52327;42.622;23.316;2023-05-07T06:17:33;13.73;69.01
65637;DHT22;52327;42.622;23.316;2023-05-07T06:19:59;13.66;68.26
65637;DHT22;52327;42.622;23.316;2023-05-07T06:22:24;13.80;68.05
65637;DHT22;52327;42.622;23.316;2023-05-07T06:24:50;13.86;66.95
65637;DHT22;52327;42.622;23.316;2023-05-07T06:27:15;13.89;66.95
65637;DHT22;52327;42.622;23.316;2023-05-07T06:29:40;13.93;66.31
65637;DHT22;52327;42.622;23.316;2023-05-07T06:32:10;13.86;66.97
65637;DHT22;52327;42.622;23.316;2023-05-07T06:34:36;13.63;66.57
65637;DHT22;52327;42.622;23.316;2023-05-07T06:37:02;13.75;66.83
65637;DHT22;52327;42.622;23.316;2023-05-07T06:39:27;14.06;66.36
65637;DHT22;52327;42.622;23.316;2023-05-07T06:41:53;14.17;65.09
65637;DHT22;52327;42.622;23.316;2023-05-07T06:44:18;14.29;64.45
65637;DHT22;52327;42.622;23.316;2023-05-07T06:46:43;14.44;64.44
65637;DHT22;52327;42.622;23.316;2023-05-07T06:49:10;14.51;64.73
65637;DHT22;52327;42.622;23.316;2023-05-07T06:51:36;14.68;64.32
65637;DHT22;52327;42.622;23.316;2023-05-07T06:54:01;14.77;64.28
65637;DHT22;52327;42.622;23.316;2023-05-07T06:56:27;14.52;63.11
65637;DHT22;52327;42.622;23.316;2023-05-07T06:58:52;14.54;63.73
65637;DHT22;52327;42.622;23.316;2023-05-07T07:01:17;14.72;63.09
65637;DHT22;52327;42.622;23.316;2023-05-07T07:03:43;14.59;63.78
65637;DHT22;52327;42.622;23.316;2023-05-07T07:06:08;14.82;63.43
65637;DHT22;52327;42.622;23.316;2023-05-07T07:08:33;14.96;62.48
65637;DHT22;52327;42.622;23.316;2023-05-07T07:11:00;15.21;62.13
65637;DHT22;52327;42.622;23.316;2023-05-07T07:13:25;15.19;62.06
65637;DHT22;52327;42.622;23.316;2023-05-07T07:15:51;15.26;61.85
65637;DHT22;52327;42.622;23.316;2023-05-07T07:18:17;15.44;61.44
65637;DHT22;52327;42.622;23.316;2023-05-07T07:20:42;15.42;61.35
65637;DHT22;52327;42.622;23.316;2023-05-07T07:23:09;15.60;60.76
65637;DHT22;52327;42.622;23.316;2023-05-07T07:25:35;15.64;59.95
65637;DHT22;52327;42.622;23.316;2023-05-07T07:28:00;15.84;58.75
65637;DHT22;52327;42.622;23.316;2023-05-07T07:30:26;16.05;58.36
65637;DHT22;52327;42.622;23.316;2023-05-07T07:32:51;15.83;58.31
65637;DHT22;52327;42.622;23.316;2023-05-07T07:35:17;15.80;58.25
65637;DHT22;52327;42.622;23.316;2023-05-07T07:37:43;15.86;57.59
65637;DHT22;52327;42.622;23.316;2023-05-07T07:40:09;16.00;57.99
65637;DHT22;52327;42.622;23.316;2023-05-07T07:42:34;16.00;57.89
65637;DHT22;52327;42.622;23.316;2023-05-07T07:45:00;16.10;57.53
65637;DHT22;52327;42.622;23.316;2023-05-07T07:47:25;16.25;56.80
65637;DHT22;52327;42.622;23.316;2023-05-07T07:49:50;16.45;56.03
65637;DHT22;52327;42.622;23.316;2023-05-07T07:52:16;16.64;55.93
65637;DHT22;52327;42.622;23.316;2023-05-07T07:54:41;16.79;55.06
65637;DHT22;52327;42.622;23.316;2023-05-07T07:57:08;16.75;54.50
65637;DHT22;52327;42.622;23.316;2023-05-07T07:59:33;16.66;54.64
65637;DHT22;52327;42.622;23.316;2023-05-07T08:01:58;16.77;54.59
65637;DHT22;52327;42.622;23.316;2023-05-07T08:04:24;16.93;54.19
65637;DHT22;52327;42.622;23.316;2023-05-07T08:06:49;16.86;55.03
65637;DHT22;52327;42.622;23.316;2023-05-07T08:09:15;17.06;54.03
65637;DHT22;52327;42.622;23.316;2023-05-07T08:11:40;17.09;52.85
65637;DHT22;52327;42.622;23.316;2023-05-07T08:14:06;17.17;53.04
65637;DHT22;52327;42.622;23.316;2023-05-07T08:16:31;17.54;52.34
65637;DHT22;52327;42.622;23.316;2023-05-07T08:18:56;17.53;52.19
65637;DHT22;52327;42.622;23.316;2023-05-07T08:21:23;17.60;51.53
65637;DHT22;52327;42.622;23.316;2023-05-07T08:23:48;17.77;51.94
65637;DHT22;52327;42.622;23.316;2023-05-07T08:26:14;17.84;51.60
65637;DHT22;52327;42.622;23.316;2023-05-07T08:28:39;17.91;51.82
65637;DHT22;52327;42.622;23.316;2023-05-07T08:31:05;18.02;51.61
65637;DHT22;52327;42.622;23.316;2023-05-07T08:33:31;18.29;50.96
65637;DHT22;52327;42.622;23.316;2023-05-07T08:35:56;18.53;49.57
65637;DHT22;52327;42.622;23.316;2023-05-07T08:38:22;18.67;50.51
65637;DHT22;52327;42.622;23.316;2023-05-07T08:40:47;18.89;50.49
65637;DHT22;52327;42.622;23.316;2023-05-07T08:43:14;19.00;49.81
65637;DHT22;52327;42.622;23.316;2023-05-07T08:45:40;19.18;48.36
65637;DHT22;52327;42.622;23.316;2023-05-07T08:48:14;19.30;47.14
65637;DHT22;52327;42.622;23.316;2023-05-07T08:50:49;19.38;47.64
65637;DHT22;52327;42.622;23.316;2023-05-07T08:53:24;19.58;46.39
65637;DHT22;52327;42.622;23.316;2023-05-07T08:55:50;19.66;47.18
65637;DHT22;52327;42.622;23.316;2023-05-07T08:58:16;19.69;47.32
65637;DHT22;52327;42.622;23.316;2023-05-07T09:00:42;19.57;48.03
65637;DHT22;52327;42.622;23.316;2023-05-07T09:03:09;19.57;48.37
65637;DHT22;52327;42.622;23.316;2023-05-07T09:05:39;19.63;49.12
65637;DHT22;52327;42.622;23.316;2023-05-07T09:08:06;19.72;49.13
65637;DHT22;52327;42.622;23.316;2023-05-07T09:10:38;19.72;49.38
65637;DHT22;52327;42.622;23.316;2023-05-07T09:13:14;19.92;48.20
65637;DHT22;52327;42.622;23.316;2023-05-07T09:15:39;20.02;47.77
65637;DHT22;52327;42.622;23.316;2023-05-07T09:18:08;20.08;47.70
65637;DHT22;52327;42.622;23.316;2023-05-07T09:21:02;20.30;46.70
65637;DHT22;52327;42.622;23.316;2023-05-07T09:23:28;20.33;47.44
65637;DHT22;52327;42.622;23.316;2023-05-07T09:26:14;19.85;46.35
65637;DHT22;52327;42.622;23.316;2023-05-07T09:28:43;19.76;47.71
65637;DHT22;52327;42.622;23.316;2023-05-07T09:31:10;19.79;47.67
65637;DHT22;52327;42.622;23.316;2023-05-07T09:33:36;19.94;48.42
65637;DHT22;52327;42.622;23.316;2023-05-07T09:36:16;20.12;46.82
65637;DHT22;52327;42.622;23.316;2023-05-07T09:38:47;20.30;46.68
65637;DHT22;52327;42.622;23.316;2023-05-07T09:41:14;20.17;46.62
65637;DHT22;52327;42.622;23.316;2023-05-07T09:43:43;20.12;45.73
65637;DHT22;52327;42.622;23.316;2023-05-07T09:46:13;20.34;46.01
65637;DHT22;52327;42.622;23.316;2023-05-07T09:48:43;20.53;43.95
65637;DHT22;52327;42.622;23.316;2023-05-07T09:51:36;20.77;44.72
65637;DHT22;52327;42.622;23.316;2023-05-07T09:54:06;21.01;44.31
65637;DHT22;52327;42.622;23.316;2023-05-07T09:56:32;21.04;44.14
65637;DHT22;52327;42.622;23.316;2023-05-07T09:59:03;21.24;44.18
65637;DHT22;52327;42.622;23.316;2023-05-07T10:01:30;21.32;43.96
65637;DHT22;52327;42.622;23.316;2023-05-07T10:03:59;21.57;43.63
65637;DHT22;52327;42.622;23.316;2023-05-07T10:06:25;21.77;41.62
65637;DHT22;52327;42.622;23.316;2023-05-07T10:08:51;21.84;42.65
65637;DHT22;52327;42.622;23.316;2023-05-07T10:11:18;22.04;42.98
65637;DHT22;52327;42.622;23.316;2023-05-07T10:13:44;22.33;42.31
65637;DHT22;52327;42.622;23.316;2023-05-07T10:16:11;22.52;42.27
65637;DHT22;52327;42.622;23.316;2023-05-07T10:18:38;22.69;41.42
65637;DHT22;52327;42.622;23.316;2023-05-07T10:21:17;22.71;40.96
65637;DHT22;52327;42.622;23.316;2023-05-07T10:23:50;22.76;41.58
65637;DHT22;52327;42.622;23.316;2023-05-07T10:26:18;22.84;40.44
65637;DHT22;52327;42.622;23.316;2023-05-07T10:28:48;22.79;41.14
65637;DHT22;52327;42.622;23.316;2023-05-07T10:31:35;22.86;40.64
65637;DHT22;52327;42.622;23.316;2023-05-07T10:34:08;22.86;39.56
65637;DHT22;52327;42.622;23.316;2023-05-07T10:36:35;22.99;40.30
65637;DHT22;52327;42.622;23.316;2023-05-07T10:39:01;23.26;38.25
65637;DHT22;52327;42.622;23.316;2023-05-07T10:41:26;23.45;39.44
65637;DHT22;52327;42.622;23.316;2023-05-07T10:43:52;23.45;37.92
65637;DHT22;52327;42.622;23.316;2023-05-07T10:46:18;23.15;37.03
65637;DHT22;52327;42.622;23.316;2023-05-07T10:51:30;22.25;38.49
65637;DHT22;52327;42.622;23.316;2023-05-07T10:56:37;21.63;38.51
65637;DHT22;52327;42.622;23.316;2023-05-07T11:04:21;22.43;37.36
65637;DHT22;52327;42.622;23.316;2023-05-07T11:09:58;23.37;36.66
65637;DHT22;52327;42.622;23.316;2023-05-07T11:15:12;22.89;37.24
65637;DHT22;52327;42.622;23.316;2023-05-07T11:17:54;22.52;36.52
65637;DHT22;52327;42.622;23.316;2023-05-07T11:20:20;22.20;36.64
65637;DHT22;52327;42.622;23.316;2023-05-07T11:22:47;22.08;37.19
65637;DHT22;52327;42.622;23.316;2023-05-07T11:25:17;22.38;37.16
65637;DHT22;52327;42.622;23.316;2023-05-07T11:27:44;23.05;38.02
65637;DHT22;52327;42.622;23.316;2023-05-07T11:30:16;23.40;36.84
65637;DHT22;52327;42.622;23.316;2023-05-07T11:32:42;24.02;36.39
65637;DHT22;52327;42.622;23.316;2023-05-07T11:35:08;24.21;34.88
65637;DHT22;52327;42.622;23.316;2023-05-07T11:37:34;23.98;34.89
65637;DHT22;52327;42.622;23.316;2023-05-07T11:40:09;24.08;34.52
65637;DHT22;52327;42.622;23.316;2023-05-07T11:42:37;24.01;34.10
65637;DHT22;52327;42.622;23.316;2023-05-07T11:45:04;24.52;34.25
65637;DHT22;52327;42.622;23.316;2023-05-07T11:47:31;25.10;33.16
65637;DHT22;52327;42.622;23.316;2023-05-07T11:49:56;25.61;33.84
65637;DHT22;52327;42.622;23.316;2023-05-07T11:52:23;26.80;31.85
65637;DHT22;52327;42.622;23.316;2023-05-07T11:54:56;26.09;31.29
65637;DHT22;52327;42.622;23.316;2023-05-07T11:57:23;28.12;29.22
65637;DHT22;52327;42.622;23.316;2023-05-07T11:59:58;30.59;27.18
65637;DHT22;52327;42.622;23.316;2023-05-07T12:02:25;33.41;22.61
65637;DHT22;52327;42.622;23.316;2023-05-07T12:04:51;35.10;21.49
65637;DHT22;52327;42.622;23.316;2023-05-07T12:07:17;35.88;20.78
65637;DHT22;52327;42.622;23.316;2023-05-07T12:09:44;36.72;19.60
65637;DHT22;52327;42.622;23.316;2023-05-07T12:12:10;37.71;19.01
65637;DHT22;52327;42.622;23.316;2023-05-07T12:14:42;38.57;18.77
65637;DHT22;52327;42.622;23.316;2023-05-07T12:17:09;39.11;18.01
65637;DHT22;52327;42.622;23.316;2023-05-07T12:19:35;39.85;17.41
65637;DHT22;52327;42.622;23.316;2023-05-07T12:22:05;40.56;17.19
65637;DHT22;52327;42.622;23.316;2023-05-07T12:24:57;40.83;15.84
65637;DHT22;52327;42.622;23.316;2023-05-07T12:27:23;38.32;17.95
65637;DHT22;52327;42.622;23.316;2023-05-07T12:29:49;39.29;17.05
65637;DHT22;52327;42.622;23.316;2023-05-07T12:32:20;39.55;16.28
65637;DHT22;52327;42.622;23.316;2023-05-07T12:34:49;39.11;16.74
65637;DHT22;52327;42.622;23.316;2023-05-07T12:37:14;35.71;18.63
65637;DHT22;52327;42.622;23.316;2023-05-07T12:40:06;31.98;21.93
65637;DHT22;52327;42.622;23.316;2023-05-07T12:42:35;33.04;21.61
65637;DHT22;52327;42.622;23.316;2023-05-07T12:45:07;36.26;19.90
65637;DHT22;52327;42.622;23.316;2023-05-07T12:47:33;38.49;17.64
65637;DHT22;52327;42.622;23.316;2023-05-07T12:49:59;36.33;18.26
65637;DHT22;52327;42.622;23.316;2023-05-07T12:52:24;34.33;20.16
65637;DHT22;52327;42.622;23.316;2023-05-07T12:54:50;35.78;18.97
65637;DHT22;52327;42.622;23.316;2023-05-07T12:57:19;36.62;18.15
65637;DHT22;52327;42.622;23.316;2023-05-07T12:59:44;38.66;16.92
65637;DHT22;52327;42.622;23.316;2023-05-07T13:02:10;40.19;15.67
65637;DHT22;52327;42.622;23.316;2023-05-07T13:04:35;41.04;15.36
65637;DHT22;52327;42.622;23.316;2023-05-07T13:07:01;39.81;15.65
65637;DHT22;52327;42.622;23.316;2023-05-07T13:09:27;39.85;15.87
65637;DHT22;52327;42.622;23.316;2023-05-07T13:11:56;40.81;15.88
65637;DHT22;52327;42.622;23.316;2023-05-07T13:14:21;41.04;14.32
65637;DHT22;52327;42.622;23.316;2023-05-07T13:16:47;40.67;15.19
65637;DHT22;52327;42.622;23.316;2023-05-07T13:19:13;41.15;14.97
65637;DHT22;52327;42.622;23.316;2023-05-07T13:21:38;42.16;15.03
65637;DHT22;52327;42.622;23.316;2023-05-07T13:24:04;42.76;15.11
65637;DHT22;52327;42.622;23.316;2023-05-07T13:26:30;41.26;15.64
65637;DHT22;52327;42.622;23.316;2023-05-07T13:28:57;37.93;17.49
65637;DHT22;52327;42.622;23.316;2023-05-07T13:31:24;36.74;18.48
65637;DHT22;52327;42.622;23.316;2023-05-07T13:33:49;35.00;19.73
65637;DHT22;52327;42.622;23.316;2023-05-07T13:36:15;35.64;19.86
65637;DHT22;52327;42.622;23.316;2023-05-07T13:38:40;35.57;20.21
65637;DHT22;52327;42.622;23.316;2023-05-07T13:41:06;37.86;18.75
65637;DHT22;52327;42.622;23.316;2023-05-07T13:43:31;36.98;18.94
65637;DHT22;52327;42.622;23.316;2023-05-07T13:45:59;36.63;19.24
65637;DHT22;52327;42.622;23.316;2023-05-07T13:48:24;35.29;20.71
65637;DHT22;52327;42.622;23.316;2023-05-07T13:50:49;36.93;19.80
65637;DHT22;52327;42.622;23.316;2023-05-07T13:53:16;35.10;19.74
65637;DHT22;52327;42.622;23.316;2023-05-07T13:55:43;35.14;20.81
65637;DHT22;52327;42.622;23.316;2023-05-07T13:58:09;35.02;20.10
65637;DHT22;52327;42.622;23.316;2023-05-07T14:00:34;38.05;18.24
65637;DHT22;52327;42.622;23.316;2023-05-07T14:03:00;38.06;18.15
65637;DHT22;52327;42.622;23.316;2023-05-07T14:05:26;36.95;19.01
65637;DHT22;52327;42.622;23.316;2023-05-07T14:07:56;35.02;20.00
65637;DHT22;52327;42.622;23.316;2023-05-07T14:10:22;33.31;21.61
65637;DHT22;52327;42.622;23.316;2023-05-07T14:12:47;31.98;23.35
65637;DHT22;52327;42.622;23.316;2023-05-07T14:15:13;30.96;24.43
65637;DHT22;52327;42.622;23.316;2023-05-07T14:17:39;30.34;24.51
65637;DHT22;52327;42.622;23.316;2023-05-07T14:20:05;29.80;25.78
65637;DHT22;52327;42.622;23.316;2023-05-07T14:22:33;29.43;26.08
65637;DHT22;52327;42.622;23.316;2023-05-07T14:24:59;29.14;27.87
65637;DHT22;52327;42.622;23.316;2023-05-07T14:27:24;32.95;23.33
65637;DHT22;52327;42.622;23.316;2023-05-07T14:29:50;34.63;22.28
65637;DHT22;52327;42.622;23.316;2023-05-07T14:32:19;36.18;20.81
65637;DHT22;52327;42.622;23.316;2023-05-07T14:34:45;37.60;19.63
65637;DHT22;52327;42.622;23.316;2023-05-07T14:37:10;36.54;19.64
65637;DHT22;52327;42.622;23.316;2023-05-07T14:39:36;37.96;18.03
65637;DHT22;52327;42.622;23.316;2023-05-07T14:42:01;38.29;17.71
65637;DHT22;52327;42.622;23.316;2023-05-07T14:44:26;38.54;17.64
65637;DHT22;52327;42.622;23.316;2023-05-07T14:46:52;37.78;18.12
65637;DHT22;52327;42.622;23.316;2023-05-07T14:49:17;37.75;18.32
65637;DHT22;52327;42.622;23.316;2023-05-07T14:51:44;37.86;18.03
65637;DHT22;52327;42.622;23.316;2023-05-07T14:54:10;36.87;18.60
65637;DHT22;52327;42.622;23.316;2023-05-07T14:56:36;35.66;19.40
65637;DHT22;52327;42.622;23.316;2023-05-07T14:59:02;34.73;19.50
65637;DHT22;52327;42.622;23.316;2023-05-07T15:01:28;34.25;19.88
65637;DHT22;52327;42.622;23.316;2023-05-07T15:03:53;32.99;21.27
65637;DHT22;52327;42.622;23.316;2023-05-07T15:06:19;31.69;23.75
65637;DHT22;52327;42.622;23.316;2023-05-07T15:08:44;30.39;23.36
65637;DHT22;52327;42.622;23.316;2023-05-07T15:11:10;29.29;24.69
65637;DHT22;52327;42.622;23.316;2023-05-07T15:13:35;28.85;25.58
65637;DHT22;52327;42.622;23.316;2023-05-07T15:16:00;29.20;26.74
65637;DHT22;52327;42.622;23.316;2023-05-07T15:18:26;28.91;26.98
65637;DHT22;52327;42.622;23.316;2023-05-07T15:20:51;28.20;27.34
65637;DHT22;52327;42.622;23.316;2023-05-07T15:23:17;27.85;26.67
65637;DHT22;52327;42.622;23.316;2023-05-07T15:25:42;27.30;27.40
65637;DHT22;52327;42.622;23.316;2023-05-07T15:28:08;26.59;27.69
65637;DHT22;52327;42.622;23.316;2023-05-07T15:30:33;26.11;28.91
65637;DHT22;52327;42.622;23.316;2023-05-07T15:32:59;26.23;29.30
65637;DHT22;52327;42.622;23.316;2023-05-07T15:35:25;26.67;28.26